sensor_id;sensor_type;location;lat;lon;timestamp;pressure;altitude;pressure_sealevel;temperature;humidity
16255;BME280;8235;52.198;9.904;2023-08-07T00:02:08;99860.69;;;15.57;100.00
16255;BME280;8235;52.198;9.904;2023-08-07T00:04:34;99865.22;;;15.56;100.00
16255;BME280;8235;52.198;9.904;2023-08-07T00:07:02;99869.75;;;15.56;100.00
16255;BME280;8235;52.198;9.904;2023-08-07T00:09:28;99870.59;;;15.56;100.00
16255;BME280;8235;52.198;9.904;2023-08-07T00:11:55;99872.28;;;15.57;100.00
16255;BME280;8235;52.198;9.904;2023-08-07T00:14:21;99879.34;;;15.58;100.00
16255;BME280;8235;52.198;9.904;2023-08-07T00:16:48;99868.59;;;15.58;100.00
16255;BME280;8235;52.198;9.904;2023-08-07T00:19:14;99870.44;;;15.58;100.00
16255;BME280;8235;52.198;9.904;2023-08-07T00:21:41;99872.28;;;15.57;100.00
16255;BME280;8235;52.198;9.904;2023-08-07T00:24:09;99873.13;;;15.58;100.00
16255;BME280;8235;52.198;9.904;2023-08-07T00:26:35;99874.78;;;15.59;100.00
16255;BME280;8235;52.198;9.904;2023-08-07T00:29:02;99884.53;;;15.60;100.00
16255;BME280;8235;52.198;9.904;2023-08-07T00:31:28;99884.53;;;15.60;100.00
16255;BME280;8235;52.198;9.904;2023-08-07T00:33:56;99883.88;;;15.58;100.00
16255;BME280;8235;52.198;9.904;2023-08-07T00:36:23;99895.75;;;15.55;100.00
16255;BME280;8235;52.198;9.904;2023-08-07T00:38:50;99892.06;;;15.56;100.00
16255;BME280;8235;52.198;9.904;2023-08-07T00:41:18;99885.84;;;15.56;100.00
16255;BME280;8235;52.198;9.904;2023-08-07T00:43:44;99889.22;;;15.58;100.00
16255;BME280;8235;52.198;9.904;2023-08-07T00:46:11;99888.66;;;15.54;100.00
16255;BME280;8235;52.198;9.904;2023-08-07T00:48:37;99888.66;;;15.54;100.00
16255;BME280;8235;52.198;9.904;2023-08-07T00:51:04;99891.47;;;15.53;100.00
16255;BME280;8235;52.198;9.904;2023-08-07T00:53:33;99882.44;;;15.54;100.00
16255;BME280;8235;52.198;9.904;2023-08-07T00:56:00;99886.41;;;15.50;100.00
16255;BME280;8235;52.198;9.904;2023-08-07T00:58:29;99893.75;;;15.48;100.00
16255;BME280;8235;52.198;9.904;2023-08-07T01:00:56;99890.06;;;15.49;100.00
16255;BME280;8235;52.198;9.904;2023-08-07T01:03:23;99876.78;;;15.47;100.00
16255;BME280;8235;52.198;9.904;2023-08-07T01:05:50;99883.59;;;15.42;100.00
16255;BME280;8235;52.198;9.904;2023-08-07T01:08:16;99888.94;;;15.42;100.00
16255;BME280;8235;52.198;9.904;2023-08-07T01:10:57;99893.66;;;15.40;100.00
16255;BME280;8235;52.198;9.904;2023-08-07T01:13:34;99891.25;;;15.37;100.00
16255;BME280;8235;52.198;9.904;2023-08-07T01:16:05;99890.41;;;15.36;100.00
16255;BME280;8235;52.198;9.904;2023-08-07T01:18:36;99892.94;;;15.38;100.00
16255;BME280;8235;52.198;9.904;2023-08-07T01:21:04;99887.56;;;15.38;100.00
16255;BME280;8235;52.198;9.904;2023-08-07T01:23:31;99887.44;;;15.39;100.00
16255;BME280;8235;52.198;9.904;2023-08-07T01:25:58;99885.03;;;15.36;100.00
16255;BME280;8235;52.198;9.904;2023-08-07T01:28:27;99888.84;;;15.34;100.00
16255;BME280;8235;52.198;9.904;2023-08-07T01:30:55;99889.84;;;15.33;100.00
16255;BME280;8235;52.198;9.904;2023-08-07T01:33:29;99888.44;;;15.28;100.00
16255;BME280;8235;52.198;9.904;2023-08-07T01:35:58;99886.75;;;15.27;100.00
16255;BME280;8235;52.198;9.904;2023-08-07T01:38:29;99885.03;;;15.26;100.00
16255;BME280;8235;52.198;9.904;2023-08-07T01:40:57;99888.44;;;15.28;100.00
16255;BME280;8235;52.198;9.904;2023-08-07T01:43:24;99883.06;;;15.28;100.00
16255;BME280;8235;52.198;9.904;2023-08-07T01:45:51;99886.75;;;15.27;100.00
16255;BME280;8235;52.198;9.904;2023-08-07T01:48:17;99883.91;;;15.29;100.00
16255;BME280;8235;52.198;9.904;2023-08-07T01:50:44;99893.81;;;15.28;100.00
16255;BME280;8235;52.198;9.904;2023-08-07T01:53:10;99886.88;;;15.26;100.00
16255;BME280;8235;52.198;9.904;2023-08-07T01:55:36;99892.53;;;15.23;100.00
16255;BME280;8235;52.198;9.904;2023-08-07T01:58:04;99892.00;;;15.19;100.00
16255;BME280;8235;52.198;9.904;2023-08-07T02:00:31;99882.25;;;15.18;100.00
16255;BME280;8235;52.198;9.904;2023-08-07T02:02:57;99888.47;;;15.19;100.00
16255;BME280;8235;52.198;9.904;2023-08-07T02:05:24;99890.44;;;15.17;100.00
16255;BME280;8235;52.198;9.904;2023-08-07T02:07:50;99891.44;;;15.16;100.00
16255;BME280;8235;52.198;9.904;2023-08-07T02:10:17;99892.56;;;15.13;100.00
16255;BME280;8235;52.198;9.904;2023-08-07T02:12:44;99890.75;;;15.14;100.00
16255;BME280;8235;52.198;9.904;2023-08-07T02:15:11;99888.91;;;15.14;100.00
16255;BME280;8235;52.198;9.904;2023-08-07T02:17:38;99887.91;;;15.15;100.00
16255;BME280;8235;52.198;9.904;2023-08-07T02:20:07;99884.53;;;15.13;100.00
16255;BME280;8235;52.198;9.904;2023-08-07T02:22:33;99881.00;;;15.13;100.00
16255;BME280;8235;52.198;9.904;2023-08-07T02:25:00;99881.13;;;15.11;100.00
16255;BME280;8235;52.198;9.904;2023-08-07T02:27:26;99881.13;;;15.11;100.00
16255;BME280;8235;52.198;9.904;2023-08-07T02:29:53;99866.31;;;15.07;100.00
16255;BME280;8235;52.198;9.904;2023-08-07T02:32:21;99870.69;;;15.08;100.00
16255;BME280;8235;52.198;9.904;2023-08-07T02:34:47;99883.41;;;15.06;100.00
16255;BME280;8235;52.198;9.904;2023-08-07T02:37:14;99873.66;;;15.05;100.00
16255;BME280;8235;52.198;9.904;2023-08-07T02:39:41;99877.38;;;15.04;100.00
16255;BME280;8235;52.198;9.904;2023-08-07T02:42:07;99874.81;;;15.03;100.00
16255;BME280;8235;52.198;9.904;2023-08-07T02:44:34;99880.34;;;15.01;100.00
16255;BME280;8235;52.198;9.904;2023-08-07T02:47:00;99874.97;;;15.01;100.00
16255;BME280;8235;52.198;9.904;2023-08-07T02:49:28;99875.09;;;15.00;100.00
16255;BME280;8235;52.198;9.904;2023-08-07T02:51:54;99882.31;;;14.99;100.00
16255;BME280;8235;52.198;9.904;2023-08-07T02:54:21;99873.56;;;14.97;100.00
16255;BME280;8235;52.198;9.904;2023-08-07T02:56:48;99872.84;;;14.95;100.00
16255;BME280;8235;52.198;9.904;2023-08-07T02:59:15;99867.63;;;14.93;100.00
16255;BME280;8235;52.198;9.904;2023-08-07T03:01:41;99874.13;;;14.91;100.00
16255;BME280;8235;52.198;9.904;2023-08-07T03:04:08;99869.03;;;14.88;100.00
16255;BME280;8235;52.198;9.904;2023-08-07T03:06:36;99872.03;;;14.85;100.00
16255;BME280;8235;52.198;9.904;2023-08-07T03:09:02;99875.69;;;14.84;100.00
16255;BME280;8235;52.198;9.904;2023-08-07T03:11:29;99880.34;;;14.82;100.00
16255;BME280;8235;52.198;9.904;2023-08-07T03:13:55;99883.19;;;14.80;100.00
16255;BME280;8235;52.198;9.904;2023-08-07T03:16:22;99887.81;;;14.78;100.00
16255;BME280;8235;52.198;9.904;2023-08-07T03:18:48;99884.44;;;14.76;100.00
16255;BME280;8235;52.198;9.904;2023-08-07T03:21:15;99889.81;;;14.76;100.00
16255;BME280;8235;52.198;9.904;2023-08-07T03:23:42;99890.22;;;14.72;100.00
16255;BME280;8235;52.198;9.904;2023-08-07T03:26:10;99894.03;;;14.69;100.00
16255;BME280;8235;52.198;9.904;2023-08-07T03:28:37;99896.16;;;14.66;100.00
16255;BME280;8235;52.198;9.904;2023-08-07T03:31:05;99896.16;;;14.66;100.00
16255;BME280;8235;52.198;9.904;2023-08-07T03:33:32;99895.47;;;14.64;100.00
16255;BME280;8235;52.198;9.904;2023-08-07T03:35:58;99896.44;;;14.63;100.00
16255;BME280;8235;52.198;9.904;2023-08-07T03:38:25;99896.59;;;14.61;100.00
16255;BME280;8235;52.198;9.904;2023-08-07T03:40:53;99895.75;;;14.61;100.00
16255;BME280;8235;52.198;9.904;2023-08-07T03:43:19;99888.69;;;14.59;100.00
16255;BME280;8235;52.198;9.904;2023-08-07T03:45:46;99904.63;;;14.61;100.00
16255;BME280;8235;52.198;9.904;2023-08-07T03:48:13;99904.63;;;14.61;100.00
16255;BME280;8235;52.198;9.904;2023-08-07T03:50:39;99908.16;;;14.62;100.00
16255;BME280;8235;52.198;9.904;2023-08-07T03:53:06;99913.50;;;14.62;100.00
16255;BME280;8235;52.198;9.904;2023-08-07T03:55:33;99920.44;;;14.64;100.00
16255;BME280;8235;52.198;9.904;2023-08-07T03:58:01;99917.59;;;14.66;100.00
16255;BME280;8235;52.198;9.904;2023-08-07T04:00:27;99914.94;;;14.66;100.00
16255;BME280;8235;52.198;9.904;2023-08-07T04:02:54;99907.75;;;14.66;100.00
16255;BME280;8235;52.198;9.904;2023-08-07T04:05:20;99916.47;;;14.68;100.00
16255;BME280;8235;52.198;9.904;2023-08-07T04:07:47;99913.81;;;14.68;100.00
16255;BME280;8235;52.198;9.904;2023-08-07T04:10:13;99919.00;;;14.70;100.00
16255;BME280;8235;52.198;9.904;2023-08-07T04:12:40;99921.53;;;14.71;100.00
16255;BME280;8235;52.198;9.904;2023-08-07T04:15:09;99916.19;;;14.71;100.00
16255;BME280;8235;52.198;9.904;2023-08-07T04:17:35;99919.56;;;14.73;100.00
16255;BME280;8235;52.198;9.904;2023-08-07T04:20:02;99921.25;;;14.74;100.00
16255;BME280;8235;52.198;9.904;2023-08-07T04:22:30;99925.50;;;14.77;100.00
16255;BME280;8235;52.198;9.904;2023-08-07T04:24:56;99922.97;;;14.75;100.00
16255;BME280;8235;52.198;9.904;2023-08-07T04:27:22;99927.47;;;14.75;100.00
16255;BME280;8235;52.198;9.904;2023-08-07T04:29:49;99917.59;;;14.75;100.00
16255;BME280;8235;52.198;9.904;2023-08-07T04:32:17;99919.16;;;14.78;100.00
16255;BME280;8235;52.198;9.904;2023-08-07T04:34:43;99927.91;;;14.80;100.00
16255;BME280;8235;52.198;9.904;2023-08-07T04:37:10;99932.41;;;14.79;100.00
16255;BME280;8235;52.198;9.904;2023-08-07T04:39:36;99943.84;;;14.81;100.00
16255;BME280;8235;52.198;9.904;2023-08-07T04:42:03;99941.03;;;14.83;100.00
16255;BME280;8235;52.198;9.904;2023-08-07T04:44:30;99941.03;;;14.83;100.00
16255;BME280;8235;52.198;9.904;2023-08-07T04:46:56;99937.50;;;14.82;100.00
16255;BME280;8235;52.198;9.904;2023-08-07T04:49:24;99939.06;;;14.85;100.00
16255;BME280;8235;52.198;9.904;2023-08-07T04:51:51;99941.72;;;14.85;100.00
16255;BME280;8235;52.198;9.904;2023-08-07T04:54:17;99940.75;;;14.86;100.00
16255;BME280;8235;52.198;9.904;2023-08-07T04:56:44;99941.59;;;14.86;100.00
16255;BME280;8235;52.198;9.904;2023-08-07T04:59:10;99944.09;;;14.88;100.00
16255;BME280;8235;52.198;9.904;2023-08-07T05:01:36;99952.16;;;14.88;100.00
16255;BME280;8235;52.198;9.904;2023-08-07T05:04:03;99958.50;;;14.87;100.00
16255;BME280;8235;52.198;9.904;2023-08-07T05:06:31;99957.69;;;14.86;100.00
16255;BME280;8235;52.198;9.904;2023-08-07T05:08:58;99953.84;;;14.89;100.00
16255;BME280;8235;52.198;9.904;2023-08-07T05:11:24;99957.09;;;14.92;100.00
16255;BME280;8235;52.198;9.904;2023-08-07T05:13:51;99952.72;;;14.91;100.00
16255;BME280;8235;52.198;9.904;2023-08-07T05:16:17;99963.03;;;14.96;100.00
16255;BME280;8235;52.198;9.904;2023-08-07T05:18:44;99960.06;;;14.99;100.00
16255;BME280;8235;52.198;9.904;2023-08-07T05:21:10;99962.75;;;14.99;100.00
16255;BME280;8235;52.198;9.904;2023-08-07T05:23:38;99960.78;;;15.01;100.00
16255;BME280;8235;52.198;9.904;2023-08-07T05:26:04;99956.69;;;14.97;100.00
16255;BME280;8235;52.198;9.904;2023-08-07T05:28:31;99966.41;;;14.98;100.00
16255;BME280;8235;52.198;9.904;2023-08-07T05:30:57;99972.63;;;14.99;100.00
16255;BME280;8235;52.198;9.904;2023-08-07T05:33:24;99969.81;;;15.00;100.00
16255;BME280;8235;52.198;9.904;2023-08-07T05:35:50;99975.31;;;14.99;100.00
16255;BME280;8235;52.198;9.904;2023-08-07T05:38:18;99974.47;;;14.98;100.00
16255;BME280;8235;52.198;9.904;2023-08-07T05:40:45;99978.84;;;14.99;100.00
16255;BME280;8235;52.198;9.904;2023-08-07T05:43:12;99978.00;;;14.99;100.00
16255;BME280;8235;52.198;9.904;2023-08-07T05:45:38;99975.16;;;15.00;100.00
16255;BME280;8235;52.198;9.904;2023-08-07T05:48:06;99979.53;;;15.01;100.00
16255;BME280;8235;52.198;9.904;2023-08-07T05:50:34;99984.06;;;15.01;100.00
16255;BME280;8235;52.198;9.904;2023-08-07T05:53:01;99988.00;;;15.06;100.00
16255;BME280;8235;52.198;9.904;2023-08-07T05:55:27;99986.28;;;15.05;100.00
16255;BME280;8235;52.198;9.904;2023-08-07T05:57:55;99976.97;;;15.09;100.00
16255;BME280;8235;52.198;9.904;2023-08-07T06:00:21;99977.84;;;15.10;100.00
16255;BME280;8235;52.198;9.904;2023-08-07T06:02:48;99975.84;;;15.12;100.00
16255;BME280;8235;52.198;9.904;2023-08-07T06:05:15;99983.91;;;15.12;100.00
16255;BME280;8235;52.198;9.904;2023-08-07T06:07:41;99975.44;;;15.16;100.00
16255;BME280;8235;52.198;9.904;2023-08-07T06:10:08;99976.16;;;15.18;100.00
16255;BME280;8235;52.198;9.904;2023-08-07T06:12:35;99981.06;;;15.23;100.00
16255;BME280;8235;52.198;9.904;2023-08-07T06:15:03;99976.41;;;15.25;100.00
16255;BME280;8235;52.198;9.904;2023-08-07T06:17:30;99976.97;;;15.28;100.00
16255;BME280;8235;52.198;9.904;2023-08-07T06:19:56;99983.75;;;15.33;100.00
16255;BME280;8235;52.198;9.904;2023-08-07T06:22:23;99979.94;;;15.35;100.00
16255;BME280;8235;52.198;9.904;2023-08-07T06:24:49;99988.69;;;15.37;100.00
16255;BME280;8235;52.198;9.904;2023-08-07T06:27:16;99991.09;;;15.40;100.00
16255;BME280;8235;52.198;9.904;2023-08-07T06:29:43;99990.91;;;15.42;100.00
16255;BME280;8235;52.198;9.904;2023-08-07T06:32:10;99996.13;;;15.43;100.00
16255;BME280;8235;52.198;9.904;2023-08-07T06:34:37;99994.31;;;15.44;100.00
16255;BME280;8235;52.198;9.904;2023-08-07T06:37:04;100000.38;;;15.46;100.00
16255;BME280;8235;52.198;9.904;2023-08-07T06:39:31;99997.56;;;15.47;100.00
16255;BME280;8235;52.198;9.904;2023-08-07T06:41:57;99995.72;;;15.48;100.00
16255;BME280;8235;52.198;9.904;2023-08-07T06:44:25;100005.47;;;15.49;100.00
16255;BME280;8235;52.198;9.904;2023-08-07T06:46:51;100005.47;;;15.49;100.00
16255;BME280;8235;52.198;9.904;2023-08-07T06:49:19;100003.63;;;15.49;100.00
16255;BME280;8235;52.198;9.904;2023-08-07T06:51:46;100001.94;;;15.48;100.00
16255;BME280;8235;52.198;9.904;2023-08-07T06:54:12;99997.97;;;15.52;100.00
16255;BME280;8235;52.198;9.904;2023-08-07T06:56:39;99996.75;;;15.56;100.00
16255;BME280;8235;52.198;9.904;2023-08-07T06:59:07;99998.25;;;15.59;100.00
16255;BME280;8235;52.198;9.904;2023-08-07T07:01:33;100005.31;;;15.60;100.00
16255;BME280;8235;52.198;9.904;2023-08-07T07:04:00;100003.06;;;15.65;100.00
16255;BME280;8235;52.198;9.904;2023-08-07T07:06:28;100012.50;;;15.69;100.00
16255;BME280;8235;52.198;9.904;2023-08-07T07:08:54;100007.56;;;15.74;100.00
16255;BME280;8235;52.198;9.904;2023-08-07T07:11:21;100006.25;;;15.78;100.00
16255;BME280;8235;52.198;9.904;2023-08-07T07:13:49;100006.97;;;15.80;100.00
16255;BME280;8235;52.198;9.904;2023-08-07T07:16:16;100004.97;;;15.82;100.00
16255;BME280;8235;52.198;9.904;2023-08-07T07:18:42;100016.13;;;15.87;100.00
16255;BME280;8235;52.198;9.904;2023-08-07T07:21:09;100013.31;;;15.89;100.00
16255;BME280;8235;52.198;9.904;2023-08-07T07:23:36;100018.53;;;15.90;100.00
16255;BME280;8235;52.198;9.904;2023-08-07T07:26:03;100023.63;;;15.93;100.00
16255;BME280;8235;52.198;9.904;2023-08-07T07:28:29;100016.56;;;15.92;100.00
16255;BME280;8235;52.198;9.904;2023-08-07T07:30:56;100022.78;;;15.93;100.00
16255;BME280;8235;52.198;9.904;2023-08-07T07:33:22;100016.22;;;15.95;100.00
16255;BME280;8235;52.198;9.904;2023-08-07T07:35:49;100023.16;;;15.98;100.00
16255;BME280;8235;52.198;9.904;2023-08-07T07:38:15;100025.84;;;15.98;99.61
16255;BME280;8235;52.198;9.904;2023-08-07T07:40:43;100026.69;;;15.98;100.00
16255;BME280;8235;52.198;9.904;2023-08-07T07:43:10;100035.75;;;15.97;100.00
16255;BME280;8235;52.198;9.904;2023-08-07T07:45:37;100031.22;;;15.98;100.00
16255;BME280;8235;52.198;9.904;2023-08-07T07:48:04;100036.44;;;16.00;100.00
16255;BME280;8235;52.198;9.904;2023-08-07T07:50:31;100036.31;;;16.01;100.00
16255;BME280;8235;52.198;9.904;2023-08-07T07:52:58;100043.50;;;16.01;100.00
16255;BME280;8235;52.198;9.904;2023-08-07T07:55:26;100049.03;;;15.99;100.00
16255;BME280;8235;52.198;9.904;2023-08-07T07:57:55;100048.03;;;16.00;100.00
16255;BME280;8235;52.198;9.904;2023-08-07T08:00:21;100051.84;;;15.97;100.00
16255;BME280;8235;52.198;9.904;2023-08-07T08:02:51;100062.44;;;15.99;100.00
16255;BME280;8235;52.198;9.904;2023-08-07T08:05:18;100052.84;;;15.96;100.00
16255;BME280;8235;52.198;9.904;2023-08-07T08:07:45;100056.53;;;15.95;100.00
16255;BME280;8235;52.198;9.904;2023-08-07T08:10:11;100060.06;;;15.96;100.00
16255;BME280;8235;52.198;9.904;2023-08-07T08:12:38;100058.63;;;16.02;100.00
16255;BME280;8235;52.198;9.904;2023-08-07T08:15:08;100059.06;;;16.07;100.00
16255;BME280;8235;52.198;9.904;2023-08-07T08:17:34;100073.03;;;16.10;100.00
16255;BME280;8235;52.198;9.904;2023-08-07T08:20:01;100058.31;;;16.14;100.00
16255;BME280;8235;52.198;9.904;2023-08-07T08:22:28;100066.19;;;16.25;100.00
16255;BME280;8235;52.198;9.904;2023-08-07T08:24:54;100066.44;;;16.32;100.00
16255;BME280;8235;52.198;9.904;2023-08-07T08:27:21;100057.22;;;16.35;100.00
16255;BME280;8235;52.198;9.904;2023-08-07T08:29:48;100067.00;;;16.36;100.00
16255;BME280;8235;52.198;9.904;2023-08-07T08:32:16;100066.28;;;16.33;100.00
16255;BME280;8235;52.198;9.904;2023-08-07T08:34:42;100065.28;;;16.35;100.00
16255;BME280;8235;52.198;9.904;2023-08-07T08:37:08;100067.53;;;16.39;100.00
16255;BME280;8235;52.198;9.904;2023-08-07T08:39:36;100070.94;;;16.31;98.17
16255;BME280;8235;52.198;9.904;2023-08-07T08:42:03;100072.41;;;16.26;98.73
16255;BME280;8235;52.198;9.904;2023-08-07T08:44:31;100077.50;;;16.29;99.35
16255;BME280;8235;52.198;9.904;2023-08-07T08:47:01;100078.78;;;16.25;99.56
16255;BME280;8235;52.198;9.904;2023-08-07T08:49:33;100085.16;;;16.24;100.00
16255;BME280;8235;52.198;9.904;2023-08-07T08:51:59;100087.97;;;16.22;100.00
16255;BME280;8235;52.198;9.904;2023-08-07T08:54:26;100093.34;;;16.22;100.00
16255;BME280;8235;52.198;9.904;2023-08-07T08:56:53;100099.44;;;16.24;100.00
16255;BME280;8235;52.198;9.904;2023-08-07T08:59:21;100104.09;;;16.22;100.00
16255;BME280;8235;52.198;9.904;2023-08-07T09:01:48;100106.63;;;16.24;100.00
16255;BME280;8235;52.198;9.904;2023-08-07T09:04:18;100106.63;;;16.24;100.00
16255;BME280;8235;52.198;9.904;2023-08-07T09:06:46;100108.34;;;16.25;100.00
16255;BME280;8235;52.198;9.904;2023-08-07T09:09:13;100108.34;;;16.25;100.00
16255;BME280;8235;52.198;9.904;2023-08-07T09:11:41;100109.56;;;16.30;100.00
16255;BME280;8235;52.198;9.904;2023-08-07T09:14:09;100117.91;;;16.37;100.00
16255;BME280;8235;52.198;9.904;2023-08-07T09:16:38;100109.97;;;16.45;100.00
16255;BME280;8235;52.198;9.904;2023-08-07T09:19:05;100105.09;;;16.58;100.00
16255;BME280;8235;52.198;9.904;2023-08-07T09:21:32;100104.91;;;16.70;100.00
16255;BME280;8235;52.198;9.904;2023-08-07T09:24:01;100108.97;;;16.83;100.00
16255;BME280;8235;52.198;9.904;2023-08-07T09:26:28;100104.22;;;16.95;100.00
16255;BME280;8235;52.198;9.904;2023-08-07T09:28:54;100105.13;;;17.04;100.00
16255;BME280;8235;52.198;9.904;2023-08-07T09:31:22;100112.06;;;17.06;100.00
16255;BME280;8235;52.198;9.904;2023-08-07T09:33:51;100126.66;;;17.04;98.47
16255;BME280;8235;52.198;9.904;2023-08-07T09:36:18;100121.41;;;17.02;99.12
16255;BME280;8235;52.198;9.904;2023-08-07T09:38:49;100132.50;;;16.99;98.69
16255;BME280;8235;52.198;9.904;2023-08-07T09:41:18;100125.19;;;16.91;97.90
16255;BME280;8235;52.198;9.904;2023-08-07T09:43:45;100132.47;;;16.81;97.29
16255;BME280;8235;52.198;9.904;2023-08-07T09:46:12;100146.78;;;16.72;95.43
16255;BME280;8235;52.198;9.904;2023-08-07T09:48:43;100135.63;;;16.67;95.07
16255;BME280;8235;52.198;9.904;2023-08-07T09:51:10;100134.78;;;16.66;95.92
16255;BME280;8235;52.198;9.904;2023-08-07T09:53:36;100137.59;;;16.75;97.05
16255;BME280;8235;52.198;9.904;2023-08-07T09:56:03;100135.69;;;16.85;97.30
16255;BME280;8235;52.198;9.904;2023-08-07T09:58:31;100133.34;;;16.99;99.42
16255;BME280;8235;52.198;9.904;2023-08-07T10:01:00;100135.53;;;17.14;97.33
16255;BME280;8235;52.198;9.904;2023-08-07T10:03:26;100139.84;;;17.24;95.60
16255;BME280;8235;52.198;9.904;2023-08-07T10:05:54;100138.09;;;17.33;94.46
16255;BME280;8235;52.198;9.904;2023-08-07T10:08:21;100138.63;;;17.37;90.20
16255;BME280;8235;52.198;9.904;2023-08-07T10:10:48;100151.91;;;17.38;89.63
16255;BME280;8235;52.198;9.904;2023-08-07T10:13:15;100142.31;;;17.35;88.60
16255;BME280;8235;52.198;9.904;2023-08-07T10:15:43;100148.91;;;17.41;90.99
16255;BME280;8235;52.198;9.904;2023-08-07T10:18:09;100144.22;;;17.43;87.73
16255;BME280;8235;52.198;9.904;2023-08-07T10:20:36;100168.25;;;17.37;86.28
16255;BME280;8235;52.198;9.904;2023-08-07T10:23:07;100183.69;;;17.34;89.09
16255;BME280;8235;52.198;9.904;2023-08-07T10:25:34;100184.59;;;17.25;90.31
16255;BME280;8235;52.198;9.904;2023-08-07T10:28:02;100167.38;;;17.18;92.94
16255;BME280;8235;52.198;9.904;2023-08-07T10:30:30;100154.81;;;17.09;93.63
16255;BME280;8235;52.198;9.904;2023-08-07T10:33:00;100160.47;;;17.06;94.85
16255;BME280;8235;52.198;9.904;2023-08-07T10:35:30;100166.50;;;17.00;94.86
16255;BME280;8235;52.198;9.904;2023-08-07T10:38:05;100178.53;;;16.96;95.05
16255;BME280;8235;52.198;9.904;2023-08-07T10:40:32;100167.81;;;16.86;91.43
16255;BME280;8235;52.198;9.904;2023-08-07T10:43:01;100159.38;;;16.81;90.42
16255;BME280;8235;52.198;9.904;2023-08-07T10:45:37;100164.47;;;16.75;90.56
16255;BME280;8235;52.198;9.904;2023-08-07T10:48:07;100168.72;;;16.77;91.28
16255;BME280;8235;52.198;9.904;2023-08-07T10:50:35;100165.25;;;16.85;94.75
16255;BME280;8235;52.198;9.904;2023-08-07T10:53:02;100170.06;;;16.91;94.03
16255;BME280;8235;52.198;9.904;2023-08-07T10:55:38;100179.63;;;17.03;95.13
16255;BME280;8235;52.198;9.904;2023-08-07T10:58:21;100188.38;;;17.05;92.01
16255;BME280;8235;52.198;9.904;2023-08-07T11:00:48;100195.94;;;17.02;88.04
16255;BME280;8235;52.198;9.904;2023-08-07T11:03:26;100185.31;;;17.00;89.45
16255;BME280;8235;52.198;9.904;2023-08-07T11:05:52;100178.09;;;17.00;87.38
16255;BME280;8235;52.198;9.904;2023-08-07T11:08:21;100178.75;;;17.02;87.09
16255;BME280;8235;52.198;9.904;2023-08-07T11:10:48;100180.47;;;17.04;86.44
16255;BME280;8235;52.198;9.904;2023-08-07T11:13:15;100175.22;;;17.02;86.00
16255;BME280;8235;52.198;9.904;2023-08-07T11:15:42;100185.69;;;17.05;85.70
16255;BME280;8235;52.198;9.904;2023-08-07T11:18:10;100180.03;;;17.08;83.74
16255;BME280;8235;52.198;9.904;2023-08-07T11:20:37;100181.72;;;17.09;83.63
16255;BME280;8235;52.198;9.904;2023-08-07T11:23:04;100183.13;;;17.13;83.09
16255;BME280;8235;52.198;9.904;2023-08-07T11:25:31;100181.81;;;17.17;83.50
16255;BME280;8235;52.198;9.904;2023-08-07T11:27:58;100167.91;;;17.22;83.07
16255;BME280;8235;52.198;9.904;2023-08-07T11:30:24;100176.91;;;17.30;82.39
16255;BME280;8235;52.198;9.904;2023-08-07T11:32:51;100176.84;;;17.40;83.15
16255;BME280;8235;52.198;9.904;2023-08-07T11:35:18;100174.38;;;17.47;80.82
16255;BME280;8235;52.198;9.904;2023-08-07T11:37:49;100171.94;;;17.53;81.44
16255;BME280;8235;52.198;9.904;2023-08-07T11:40:15;100170.00;;;17.63;81.11
16255;BME280;8235;52.198;9.904;2023-08-07T11:42:42;100162.72;;;17.74;81.37
16255;BME280;8235;52.198;9.904;2023-08-07T11:45:09;100159.66;;;17.86;80.09
16255;BME280;8235;52.198;9.904;2023-08-07T11:47:35;100158.38;;;17.98;77.52
16255;BME280;8235;52.198;9.904;2023-08-07T11:50:02;100165.56;;;18.08;76.65
16255;BME280;8235;52.198;9.904;2023-08-07T11:52:29;100169.59;;;18.12;76.05
16255;BME280;8235;52.198;9.904;2023-08-07T11:54:57;100158.50;;;18.15;75.65
16255;BME280;8235;52.198;9.904;2023-08-07T11:57:24;100161.44;;;18.21;75.02
16255;BME280;8235;52.198;9.904;2023-08-07T11:59:51;100165.16;;;18.28;73.94
16255;BME280;8235;52.198;9.904;2023-08-07T12:02:22;100210.16;;;18.28;73.89
16255;BME280;8235;52.198;9.904;2023-08-07T12:04:50;100213.03;;;18.26;74.98
16255;BME280;8235;52.198;9.904;2023-08-07T12:07:17;100211.22;;;18.09;73.96
16255;BME280;8235;52.198;9.904;2023-08-07T12:09:44;100214.69;;;17.84;75.58
16255;BME280;8235;52.198;9.904;2023-08-07T12:12:12;100211.97;;;17.66;78.06
16255;BME280;8235;52.198;9.904;2023-08-07T12:14:39;100214.22;;;17.43;78.85
16255;BME280;8235;52.198;9.904;2023-08-07T12:17:08;100208.91;;;17.33;81.88
16255;BME280;8235;52.198;9.904;2023-08-07T12:19:36;100219.88;;;17.22;82.74
16255;BME280;8235;52.198;9.904;2023-08-07T12:22:06;100220.50;;;17.16;84.44
16255;BME280;8235;52.198;9.904;2023-08-07T12:24:35;100223.47;;;17.13;85.18
16255;BME280;8235;52.198;9.904;2023-08-07T12:27:01;100228.84;;;17.13;86.80
16255;BME280;8235;52.198;9.904;2023-08-07T12:29:29;100228.59;;;17.07;84.04
16255;BME280;8235;52.198;9.904;2023-08-07T12:31:56;100233.41;;;17.03;83.95
16255;BME280;8235;52.198;9.904;2023-08-07T12:34:24;100228.38;;;17.00;83.81
16255;BME280;8235;52.198;9.904;2023-08-07T12:36:50;100221.66;;;17.04;85.14
16255;BME280;8235;52.198;9.904;2023-08-07T12:39:17;100227.50;;;16.99;82.95
16255;BME280;8235;52.198;9.904;2023-08-07T12:41:43;100241.97;;;16.98;83.27
16255;BME280;8235;52.198;9.904;2023-08-07T12:44:10;100247.63;;;16.95;81.99
16255;BME280;8235;52.198;9.904;2023-08-07T12:46:39;100277.38;;;16.84;82.03
16255;BME280;8235;52.198;9.904;2023-08-07T12:49:08;100289.59;;;16.69;83.52
16255;BME280;8235;52.198;9.904;2023-08-07T12:51:35;100289.47;;;16.51;85.87
16255;BME280;8235;52.198;9.904;2023-08-07T12:54:01;100289.75;;;16.39;85.09
16255;BME280;8235;52.198;9.904;2023-08-07T12:56:27;100284.97;;;16.23;85.41
16255;BME280;8235;52.198;9.904;2023-08-07T12:58:54;100280.16;;;16.17;86.46